Decoded Metar for UUDL ( in ) (IATA:) | Meteo·Mobile Aviation Weather
aviador You're here:

UUDL Decoded Metar

in
Report Time2018-10-20 12:00:00
UTC Time2018-10-20 12:24:15
Flight Rules vfr VFR
Wind260° at 10 kt
W.Decomp.*RWY 23: 8.7 kt HW 5.0 kt RCW
W.Rank260° ranks 3
Current wind is above 260° avg. (8.2)
Visibility9999 m
Phenomena:N/A
Clouds:Overcast 045 Hf
Expected CloudBase > 1,200 ft AGL from Temp-Dew spread
Ceiling4,500 ft
Temp07°C
Dew Point04°C (81% RH)
AAT2.1°C
QNH1019 hPa
Raw Report
METAR UUDL 201200Z 26005MPS 9999 OVC045 07/04 Q1019 R23/010060 NOSIG
RMK QFE756=

Extra information for UUDL:More info

Social comments